Time;durP1;ratioP1;P1;durP2;ratioP2;P2;SDS_P1;SDS_P2;PMS_P1;PMS_P2;Temp;Humidity;BMP_temperature;BMP_pressure;BME280_temperature;BME280_humidity;BME280_pressure;Samples;Min_cycle;Max_cycle;Signal;HPM_P1;HPM_P2
2022/03/22 00:00:11;;;;;;;0.00;0.00;;;;;;;;;;5025659;28;20496;-74
2022/03/22 00:02:44;;;;;;;0.00;0.00;;;;;;;;;;5025615;28;20045;-74
2022/03/22 00:05:18;;;;;;;0.00;0.00;;;;;;;;;;5025672;28;20053;-74
2022/03/22 00:07:48;;;;;;;0.00;0.00;;;;;;;;;;5024838;28;20054;-74
2022/03/22 00:10:20;;;;;;;0.00;0.00;;;;;;;;;;5024937;28;20052;-75
2022/03/22 00:12:51;;;;;;;0.00;0.00;;;;;;;;;;5052975;28;20040;-75
2022/03/22 00:15:21;;;;;;;0.00;0.00;;;;;;;;;;5062249;28;20048;-74
2022/03/22 00:18:12;;;;;;;0.00;0.00;;;;;;;;;;5064818;28;20049;-75
2022/03/22 00:20:42;;;;;;;0.00;0.00;;;;;;;;;;5066204;28;20056;-74
2022/03/22 00:23:13;;;;;;;0.00;0.00;;;;;;;;;;5066978;28;20047;-76
2022/03/22 00:25:43;;;;;;;0.20;0.10;;;;;;;;;;5065961;28;20056;-74
2022/03/22 00:28:13;;;;;;;0.00;0.00;;;;;;;;;;5065873;28;20051;-76
2022/03/22 00:30:44;;;;;;;3.65;1.95;;;;;;;;;;5065001;28;20044;-74
2022/03/22 00:33:14;;;;;;;0.00;0.00;;;;;;;;;;5069642;28;20099;-74
2022/03/22 00:35:44;;;;;;;0.00;0.00;;;;;;;;;;5069667;28;20036;-74
2022/03/22 00:38:20;;;;;;;0.00;0.00;;;;;;;;;;5058261;28;20045;-74
2022/03/22 00:40:50;;;;;;;0.00;0.00;;;;;;;;;;5049678;28;20550;-75
2022/03/22 00:43:20;;;;;;;0.00;0.00;;;;;;;;;;5048683;28;20081;-74
2022/03/22 00:45:51;;;;;;;0.00;0.00;;;;;;;;;;5049865;28;20068;-73
2022/03/22 00:48:21;;;;;;;0.00;0.00;;;;;;;;;;5049866;28;20048;-73
2022/03/22 00:50:53;;;;;;;0.00;0.00;;;;;;;;;;5049482;28;20064;-73
2022/03/22 00:53:24;;;;;;;0.00;0.00;;;;;;;;;;5049320;28;20048;-75
2022/03/22 00:55:54;;;;;;;0.00;0.00;;;;;;;;;;5048868;28;20041;-74
2022/03/22 00:58:23;;;;;;;0.00;0.00;;;;;;;;;;5049155;28;20041;-74
2022/03/22 01:00:53;;;;;;;0.00;0.00;;;;;;;;;;5048673;28;20049;-74
2022/03/22 01:03:24;;;;;;;0.00;0.00;;;;;;;;;;5049057;28;20040;-74
2022/03/22 01:05:54;;;;;;;0.00;0.00;;;;;;;;;;5049461;28;20045;-73
2022/03/22 01:08:24;;;;;;;0.00;0.00;;;;;;;;;;5048986;28;20056;-73
2022/03/22 01:10:54;;;;;;;0.00;0.00;;;;;;;;;;5049200;28;20040;-74
2022/03/22 01:13:27;;;;;;;0.00;0.00;;;;;;;;;;5048253;28;20052;-74
2022/03/22 01:15:58;;;;;;;0.00;0.00;;;;;;;;;;5048705;28;20052;-73
2022/03/22 01:18:27;;;;;;;0.00;0.00;;;;;;;;;;5048460;28;20049;-73
2022/03/22 01:20:57;;;;;;;0.00;0.00;;;;;;;;;;5048988;28;20049;-72
2022/03/22 01:23:28;;;;;;;0.00;0.00;;;;;;;;;;5048971;28;20072;-75
2022/03/22 01:25:59;;;;;;;0.00;0.00;;;;;;;;;;5047662;28;20064;-73
2022/03/22 01:28:29;;;;;;;0.00;0.00;;;;;;;;;;5048483;28;20053;-73
2022/03/22 01:31:00;;;;;;;0.00;0.00;;;;;;;;;;5049085;28;20052;-73
2022/03/22 01:33:30;;;;;;;0.00;0.00;;;;;;;;;;5048930;28;20060;-73
2022/03/22 01:36:00;;;;;;;0.00;0.00;;;;;;;;;;5047948;28;20048;-73
2022/03/22 01:38:30;;;;;;;0.00;0.00;;;;;;;;;;5048309;28;20049;-75
2022/03/22 01:41:00;;;;;;;0.00;0.00;;;;;;;;;;5047393;28;20428;-74
2022/03/22 01:43:30;;;;;;;0.00;0.00;;;;;;;;;;5047202;28;20060;-73
2022/03/22 01:46:02;;;;;;;0.00;0.00;;;;;;;;;;5048148;28;20045;-74
2022/03/22 01:48:32;;;;;;;0.00;0.00;;;;;;;;;;5047810;28;20052;-72
2022/03/22 01:51:02;;;;;;;0.00;0.00;;;;;;;;;;5047566;28;20056;-74
2022/03/22 01:53:35;;;;;;;0.00;0.00;;;;;;;;;;5047410;28;20060;-73
2022/03/22 01:56:05;;;;;;;0.00;0.00;;;;;;;;;;5047150;28;20040;-73
2022/03/22 01:58:35;;;;;;;0.00;0.00;;;;;;;;;;5048774;28;20056;-74
2022/03/22 02:06:46;;;;;;;0.00;0.00;;;;;;;;;;5047601;28;20057;-76
2022/03/22 02:09:16;;;;;;;0.00;0.00;;;;;;;;;;5047263;28;20107;-74
2022/03/22 02:11:47;;;;;;;0.00;0.00;;;;;;;;;;5048230;28;20045;-74
2022/03/22 02:14:17;;;;;;;0.00;0.00;;;;;;;;;;5048072;28;20037;-74
2022/03/22 02:16:49;;;;;;;0.00;0.00;;;;;;;;;;5047956;28;20052;-74
2022/03/22 02:19:21;;;;;;;0.00;0.00;;;;;;;;;;5048786;28;20037;-73
2022/03/22 02:21:58;;;;;;;0.00;0.00;;;;;;;;;;5048242;28;20053;-73
2022/03/22 02:24:28;;;;;;;0.00;0.00;;;;;;;;;;5047787;28;20053;-74
2022/03/22 02:26:58;;;;;;;0.00;0.00;;;;;;;;;;5047840;28;20049;-73
2022/03/22 02:29:28;;;;;;;0.00;0.00;;;;;;;;;;5044730;28;20063;-74
2022/03/22 02:31:59;;;;;;;0.00;0.00;;;;;;;;;;5044014;28;20080;-74
2022/03/22 02:34:30;;;;;;;0.00;0.00;;;;;;;;;;5044235;28;20764;-73
2022/03/22 02:37:02;;;;;;;0.00;0.00;;;;;;;;;;5046623;28;20037;-73
2022/03/22 02:39:34;;;;;;;0.00;0.00;;;;;;;;;;5047843;28;20052;-73
2022/03/22 02:42:05;;;;;;;0.00;0.00;;;;;;;;;;5047346;28;20063;-73
2022/03/22 02:44:34;;;;;;;0.00;0.00;;;;;;;;;;5048150;28;20051;-72
2022/03/22 02:47:06;;;;;;;0.00;0.00;;;;;;;;;;5047331;28;20479;-73
2022/03/22 02:49:37;;;;;;;0.00;0.00;;;;;;;;;;5047743;28;20056;-74
2022/03/22 02:52:07;;;;;;;0.00;0.00;;;;;;;;;;5047595;28;20514;-73
2022/03/22 02:54:37;;;;;;;0.00;0.00;;;;;;;;;;5046743;28;20041;-72
2022/03/22 02:57:07;;;;;;;0.00;0.00;;;;;;;;;;5046857;28;20096;-72
2022/03/22 02:59:36;;;;;;;0.00;0.00;;;;;;;;;;5047005;28;20055;-74
2022/03/22 03:02:06;;;;;;;0.00;0.00;;;;;;;;;;5045727;28;20056;-75
2022/03/22 03:04:37;;;;;;;0.00;0.00;;;;;;;;;;5044915;28;20051;-74
2022/03/22 03:07:07;;;;;;;0.00;0.00;;;;;;;;;;5047258;28;20052;-75
2022/03/22 03:09:38;;;;;;;0.00;0.00;;;;;;;;;;5047606;28;20048;-74
2022/03/22 03:12:09;;;;;;;0.00;0.00;;;;;;;;;;5047182;28;20432;-73
2022/03/22 03:14:40;;;;;;;0.00;0.00;;;;;;;;;;5044670;28;20409;-74
2022/03/22 03:17:16;;;;;;;0.00;0.00;;;;;;;;;;5046071;28;20053;-73
2022/03/22 03:19:46;;;;;;;0.00;0.00;;;;;;;;;;5047300;28;20571;-74
2022/03/22 03:22:16;;;;;;;0.00;0.00;;;;;;;;;;5047131;28;20049;-73
2022/03/22 03:24:47;;;;;;;0.00;0.00;;;;;;;;;;5046971;28;20045;-74
2022/03/22 03:27:17;;;;;;;0.00;0.00;;;;;;;;;;5046916;28;20057;-74
2022/03/22 03:29:47;;;;;;;;;;;;;;;;;;5046082;28;20481;-73
2022/03/22 03:32:17;;;;;;;0.00;0.00;;;;;;;;;;5047335;28;19920;-73
2022/03/22 03:34:48;;;;;;;0.00;0.00;;;;;;;;;;5045995;28;20515;-73
2022/03/22 03:37:19;;;;;;;0.00;0.00;;;;;;;;;;5046912;28;20041;-74
2022/03/22 03:39:49;;;;;;;0.00;0.00;;;;;;;;;;5046878;28;20044;-73
2022/03/22 03:42:19;;;;;;;0.00;0.00;;;;;;;;;;5046685;28;20045;-72
2022/03/22 03:47:37;;;;;;;0.00;0.00;;;;;;;;;;5046961;28;20741;-74
2022/03/22 03:50:09;;;;;;;0.00;0.00;;;;;;;;;;5046956;28;20056;-75
2022/03/22 03:52:39;;;;;;;0.00;0.00;;;;;;;;;;5044357;28;20041;-74
2022/03/22 03:55:10;;;;;;;0.00;0.00;;;;;;;;;;5046592;28;20059;-73
2022/03/22 03:57:40;;;;;;;0.00;0.00;;;;;;;;;;5047073;28;20037;-74
2022/03/22 04:00:11;;;;;;;0.00;0.00;;;;;;;;;;5046279;28;20508;-73
2022/03/22 04:02:42;;;;;;;0.00;0.00;;;;;;;;;;5045212;28;20056;-74
2022/03/22 04:05:13;;;;;;;0.00;0.00;;;;;;;;;;5045464;28;20068;-73
2022/03/22 04:07:43;;;;;;;0.00;0.00;;;;;;;;;;5043566;28;20068;-73
2022/03/22 04:10:13;;;;;;;0.00;0.00;;;;;;;;;;5047053;28;20049;-74
2022/03/22 04:12:44;;;;;;;0.00;0.00;;;;;;;;;;5046554;28;20063;-72
2022/03/22 04:15:14;;;;;;;0.00;0.00;;;;;;;;;;5046610;28;20048;-72
2022/03/22 04:17:44;;;;;;;0.00;0.00;;;;;;;;;;5046580;28;20045;-73
2022/03/22 04:20:14;;;;;;;0.00;0.00;;;;;;;;;;5046362;28;20049;-73
2022/03/22 04:22:44;;;;;;;0.00;0.00;;;;;;;;;;5045311;28;20056;-72
2022/03/22 04:25:14;;;;;;;0.00;0.00;;;;;;;;;;5045812;28;20401;-73
2022/03/22 04:33:22;;;;;;;0.00;0.00;;;;;;;;;;5046583;28;20037;-73
2022/03/22 04:35:52;;;;;;;0.00;0.00;;;;;;;;;;5046615;28;20048;-73
2022/03/22 04:38:21;;;;;;;0.00;0.00;;;;;;;;;;5044524;28;20056;-73
2022/03/22 04:40:53;;;;;;;;;;;;;;;;;;5046474;28;20053;-73
2022/03/22 04:43:23;;;;;;;0.00;0.00;;;;;;;;;;5046136;28;19929;-73
2022/03/22 04:45:53;;;;;;;0.00;0.00;;;;;;;;;;5046021;28;20690;-74
2022/03/22 04:48:23;;;;;;;0.00;0.00;;;;;;;;;;5046051;28;20075;-74
2022/03/22 04:56:43;;;;;;;0.00;0.00;;;;;;;;;;5046427;28;20045;-74
2022/03/22 04:56:45;;;;;;;0.00;0.00;;;;;;;;;;5045605;28;20037;-74
2022/03/22 04:59:22;;;;;;;0.00;0.00;;;;;;;;;;5046065;28;20041;-74
2022/03/22 05:01:51;;;;;;;0.00;0.00;;;;;;;;;;5046030;28;20053;-73
2022/03/22 05:04:22;;;;;;;0.00;0.00;;;;;;;;;;5045744;28;20496;-74
2022/03/22 05:06:52;;;;;;;0.00;0.00;;;;;;;;;;5045632;28;20045;-74
2022/03/22 05:09:23;;;;;;;0.00;0.00;;;;;;;;;;5046224;28;20052;-74
2022/03/22 05:11:54;;;;;;;0.00;0.00;;;;;;;;;;5046142;28;20060;-73
2022/03/22 05:14:24;;;;;;;0.00;0.00;;;;;;;;;;5045521;28;20071;-73
2022/03/22 05:16:58;;;;;;;0.00;0.00;;;;;;;;;;5045815;28;20071;-73
2022/03/22 05:19:28;;;;;;;0.00;0.00;;;;;;;;;;5048256;28;20036;-73
2022/03/22 05:21:58;;;;;;;0.00;0.00;;;;;;;;;;5049517;28;20048;-73
2022/03/22 05:24:28;;;;;;;0.00;0.00;;;;;;;;;;5046892;28;20061;-73
2022/03/22 05:26:58;;;;;;;0.00;0.00;;;;;;;;;;5049245;28;20044;-73
2022/03/22 05:29:28;;;;;;;0.00;0.00;;;;;;;;;;5048934;28;20489;-74
2022/03/22 05:31:58;;;;;;;0.00;0.00;;;;;;;;;;5049176;28;20484;-73
2022/03/22 05:34:28;;;;;;;0.00;0.00;;;;;;;;;;5049129;28;20048;-74
2022/03/22 05:36:59;;;;;;;0.00;0.00;;;;;;;;;;5048564;28;20389;-74
2022/03/22 05:39:30;;;;;;;0.00;0.00;;;;;;;;;;5049353;28;20053;-74
2022/03/22 05:42:00;;;;;;;0.00;0.00;;;;;;;;;;5049310;28;20041;-73
2022/03/22 05:44:30;;;;;;;0.00;0.00;;;;;;;;;;5049124;28;20056;-73
2022/03/22 05:47:00;;;;;;;0.00;0.00;;;;;;;;;;5048709;28;20053;-73
2022/03/22 05:49:30;;;;;;;0.00;0.00;;;;;;;;;;5048518;28;20546;-73
2022/03/22 05:52:00;;;;;;;0.00;0.00;;;;;;;;;;5049333;28;20574;-74
2022/03/22 05:54:30;;;;;;;0.00;0.00;;;;;;;;;;5048758;28;20439;-74
2022/03/22 05:57:00;;;;;;;0.00;0.00;;;;;;;;;;5048830;28;20037;-73
2022/03/22 05:59:30;;;;;;;0.00;0.00;;;;;;;;;;5048463;28;20040;-73
2022/03/22 06:02:00;;;;;;;0.00;0.00;;;;;;;;;;5047693;28;20052;-73
2022/03/22 06:04:30;;;;;;;0.00;0.00;;;;;;;;;;5048330;28;20052;-74
2022/03/22 06:07:00;;;;;;;0.00;0.00;;;;;;;;;;5046618;28;20053;-73
2022/03/22 06:09:31;;;;;;;0.00;0.00;;;;;;;;;;5048072;28;20423;-74
2022/03/22 06:12:00;;;;;;;0.00;0.00;;;;;;;;;;5047663;28;20504;-73
2022/03/22 06:14:30;;;;;;;0.00;0.00;;;;;;;;;;5047977;28;20045;-73
2022/03/22 06:17:00;;;;;;;0.00;0.00;;;;;;;;;;5048194;28;20049;-73
2022/03/22 06:19:30;;;;;;;0.00;0.00;;;;;;;;;;5048782;28;20775;-73
2022/03/22 06:22:04;;;;;;;0.00;0.00;;;;;;;;;;5047961;28;20045;-73
2022/03/22 06:24:34;;;;;;;0.00;0.00;;;;;;;;;;5048017;28;20518;-73
2022/03/22 06:27:06;;;;;;;0.00;0.00;;;;;;;;;;5047603;28;20049;-73
2022/03/22 06:29:36;;;;;;;0.00;0.00;;;;;;;;;;5048042;28;20048;-74
2022/03/22 06:32:11;;;;;;;0.38;0.38;;;;;;;;;;5047877;28;20046;-72
2022/03/22 06:34:41;;;;;;;0.00;0.00;;;;;;;;;;5048281;28;20045;-73
2022/03/22 06:37:11;;;;;;;0.00;0.00;;;;;;;;;;5047119;28;20053;-73
2022/03/22 06:39:41;;;;;;;0.00;0.00;;;;;;;;;;5048163;28;20048;-73
2022/03/22 06:42:11;;;;;;;0.00;0.00;;;;;;;;;;5047896;28;20044;-74
2022/03/22 06:44:41;;;;;;;0.00;0.00;;;;;;;;;;5047931;28;20045;-74
2022/03/22 06:47:10;;;;;;;0.00;0.00;;;;;;;;;;5046222;28;20500;-73
2022/03/22 06:49:41;;;;;;;0.00;0.00;;;;;;;;;;5047170;28;20041;-73
2022/03/22 06:52:11;;;;;;;0.00;0.00;;;;;;;;;;5047127;28;20052;-74
2022/03/22 06:54:40;;;;;;;0.00;0.00;;;;;;;;;;5047604;28;20056;-73
2022/03/22 06:57:10;;;;;;;0.00;0.00;;;;;;;;;;5047287;28;20056;-74
2022/03/22 06:59:40;;;;;;;0.00;0.00;;;;;;;;;;5046676;28;20053;-73
2022/03/22 07:02:10;;;;;;;0.00;0.00;;;;;;;;;;5046108;28;20040;-73
2022/03/22 07:04:41;;;;;;;0.00;0.00;;;;;;;;;;5046699;28;20424;-73
2022/03/22 07:07:10;;;;;;;0.00;0.00;;;;;;;;;;5047503;28;20052;-73
2022/03/22 07:09:40;;;;;;;0.00;0.00;;;;;;;;;;5047170;28;20049;-73
2022/03/22 07:12:11;;;;;;;0.00;0.00;;;;;;;;;;5045146;28;20045;-73
2022/03/22 07:14:46;;;;;;;0.00;0.00;;;;;;;;;;5047175;28;20049;-73
2022/03/22 07:17:15;;;;;;;0.00;0.00;;;;;;;;;;5046777;28;20060;-73
2022/03/22 07:19:51;;;;;;;0.00;0.00;;;;;;;;;;5047376;28;20041;-73
2022/03/22 07:22:21;;;;;;;0.00;0.00;;;;;;;;;;5046850;28;20416;-72
2022/03/22 07:24:51;;;;;;;0.00;0.00;;;;;;;;;;5047338;28;20044;-73
2022/03/22 07:27:21;;;;;;;0.00;0.00;;;;;;;;;;5047182;28;20044;-73
2022/03/22 07:29:51;;;;;;;0.00;0.00;;;;;;;;;;5046849;28;20044;-73
2022/03/22 07:32:21;;;;;;;0.00;0.00;;;;;;;;;;5047099;28;20048;-74
2022/03/22 07:34:52;;;;;;;0.00;0.00;;;;;;;;;;5046958;28;20510;-73
2022/03/22 07:37:22;;;;;;;0.00;0.00;;;;;;;;;;5046534;28;20423;-73
2022/03/22 07:39:52;;;;;;;0.00;0.00;;;;;;;;;;5046591;28;20491;-73
2022/03/22 07:42:24;;;;;;;0.00;0.00;;;;;;;;;;5045981;28;20045;-73
2022/03/22 07:44:59;;;;;;;0.00;0.00;;;;;;;;;;5046888;28;20045;-73
2022/03/22 07:47:30;;;;;;;0.00;0.00;;;;;;;;;;5046798;28;20041;-74
2022/03/22 07:53:01;;;;;;;0.00;0.00;;;;;;;;;;5046260;28;20045;-74
2022/03/22 07:55:42;;;;;;;0.00;0.00;;;;;;;;;;5046718;28;20044;-73
2022/03/22 07:58:13;;;;;;;0.00;0.00;;;;;;;;;;5046440;28;20064;-74
2022/03/22 08:00:43;;;;;;;0.00;0.00;;;;;;;;;;5045066;28;20617;-74
2022/03/22 08:03:15;;;;;;;0.00;0.00;;;;;;;;;;5046319;28;20052;-73
2022/03/22 08:05:49;;;;;;;0.00;0.00;;;;;;;;;;5046628;28;20053;-73
2022/03/22 08:08:19;;;;;;;0.00;0.00;;;;;;;;;;5044137;28;20553;-74
2022/03/22 08:11:05;;;;;;;0.00;0.00;;;;;;;;;;5045590;28;20521;-74
2022/03/22 08:13:37;;;;;;;0.00;0.00;;;;;;;;;;5047012;28;20049;-73
2022/03/22 08:16:07;;;;;;;0.00;0.00;;;;;;;;;;5046828;28;20049;-73
2022/03/22 08:18:37;;;;;;;0.00;0.00;;;;;;;;;;5046532;28;20578;-72
2022/03/22 08:21:07;;;;;;;0.00;0.00;;;;;;;;;;5046138;28;20052;-73
2022/03/22 08:23:37;;;;;;;0.00;0.00;;;;;;;;;;5046020;28;20057;-73
2022/03/22 08:26:07;;;;;;;0.00;0.00;;;;;;;;;;5046522;28;20063;-73
2022/03/22 08:28:37;;;;;;;0.00;0.00;;;;;;;;;;5044836;28;20492;-74
2022/03/22 08:31:07;;;;;;;0.00;0.00;;;;;;;;;;5046399;28;20049;-73
2022/03/22 08:33:38;;;;;;;0.00;0.00;;;;;;;;;;5046567;28;20044;-73
2022/03/22 08:36:07;;;;;;;0.00;0.00;;;;;;;;;;5045781;28;20048;-73
2022/03/22 08:38:37;;;;;;;0.00;0.00;;;;;;;;;;5046705;28;20045;-73
2022/03/22 08:41:08;;;;;;;0.00;0.00;;;;;;;;;;5046722;28;20053;-72
2022/03/22 08:43:38;;;;;;;0.00;0.00;;;;;;;;;;5046219;28;20053;-74
2022/03/22 08:46:08;;;;;;;0.90;0.35;;;;;;;;;;5046167;28;20056;-72
2022/03/22 08:48:38;;;;;;;0.00;0.00;;;;;;;;;;5045374;28;20056;-72
2022/03/22 08:51:08;;;;;;;0.00;0.00;;;;;;;;;;5045779;28;20040;-74
2022/03/22 08:53:38;;;;;;;0.00;0.00;;;;;;;;;;5046089;28;20049;-74
2022/03/22 08:56:08;;;;;;;0.00;0.00;;;;;;;;;;5050170;28;20049;-73
2022/03/22 08:58:38;;;;;;;0.00;0.00;;;;;;;;;;5050242;28;20037;-73
2022/03/22 09:01:08;;;;;;;0.00;0.00;;;;;;;;;;5048920;28;20063;-73
2022/03/22 09:03:38;;;;;;;0.00;0.00;;;;;;;;;;5049459;28;20056;-73
2022/03/22 09:06:08;;;;;;;0.00;0.00;;;;;;;;;;5049568;28;20519;-73
2022/03/22 09:08:40;;;;;;;0.00;0.00;;;;;;;;;;5049783;28;20049;-73
2022/03/22 09:11:10;;;;;;;0.00;0.00;;;;;;;;;;5049377;28;20045;-73
2022/03/22 09:13:41;;;;;;;0.00;0.00;;;;;;;;;;5049037;28;20064;-73
2022/03/22 09:16:13;;;;;;;0.00;0.00;;;;;;;;;;5048859;28;20045;-72
2022/03/22 09:18:44;;;;;;;0.00;0.00;;;;;;;;;;5049743;28;20518;-73
2022/03/22 09:21:16;;;;;;;0.00;0.00;;;;;;;;;;5049368;28;20045;-73
2022/03/22 09:23:47;;;;;;;0.00;0.00;;;;;;;;;;5049439;28;20053;-73
2022/03/22 09:26:18;;;;;;;0.00;0.00;;;;;;;;;;5048886;28;20408;-74
2022/03/22 09:28:52;;;;;;;0.00;0.00;;;;;;;;;;5049262;28;20484;-72
2022/03/22 09:31:25;;;;;;;0.00;0.00;;;;;;;;;;5048866;28;20041;-75
2022/03/22 09:33:57;;;;;;;0.00;0.00;;;;;;;;;;5048668;28;20048;-73
2022/03/22 09:36:27;;;;;;;0.00;0.00;;;;;;;;;;5048829;28;20056;-73
2022/03/22 09:38:58;;;;;;;0.00;0.00;;;;;;;;;;5049231;28;20044;-73
2022/03/22 09:41:29;;;;;;;0.00;0.00;;;;;;;;;;5047393;28;20510;-72
2022/03/22 09:44:01;;;;;;;0.00;0.00;;;;;;;;;;5048213;28;20036;-73
2022/03/22 09:46:32;;;;;;;0.00;0.00;;;;;;;;;;5049325;28;20044;-72
2022/03/22 09:49:03;;;;;;;0.00;0.00;;;;;;;;;;5048093;28;20064;-72
2022/03/22 09:51:48;;;;;;;0.00;0.00;;;;;;;;;;5048995;28;20049;-72
2022/03/22 09:54:22;;;;;;;0.00;0.00;;;;;;;;;;5048460;28;20041;-73
2022/03/22 09:56:53;;;;;;;0.00;0.00;;;;;;;;;;5048483;28;20492;-73
2022/03/22 09:59:23;;;;;;;;;;;;;;;;;;5048307;28;20056;-72
2022/03/22 10:01:54;;;;;;;0.00;0.00;;;;;;;;;;5047162;28;19948;-72
2022/03/22 10:04:24;;;;;;;1.08;0.20;;;;;;;;;;5047761;28;20049;-73
2022/03/22 10:06:54;;;;;;;0.00;0.00;;;;;;;;;;5048376;28;20053;-72
2022/03/22 10:09:32;;;;;;;0.00;0.00;;;;;;;;;;5047931;28;20045;-73
2022/03/22 10:12:16;;;;;;;0.00;0.00;;;;;;;;;;5047757;28;20048;-72
2022/03/22 10:14:47;;;;;;;0.00;0.00;;;;;;;;;;5048240;28;20496;-73
2022/03/22 10:17:18;;;;;;;0.00;0.00;;;;;;;;;;5048767;28;20060;-72
2022/03/22 10:19:51;;;;;;;0.00;0.00;;;;;;;;;;5048618;28;20053;-73
2022/03/22 10:22:26;;;;;;;0.00;0.00;;;;;;;;;;5047663;28;20508;-73
2022/03/22 10:25:02;;;;;;;0.00;0.00;;;;;;;;;;5048452;28;20041;-72
2022/03/22 10:27:35;;;;;;;0.00;0.00;;;;;;;;;;5047157;28;20053;-73
2022/03/22 10:30:20;;;;;;;0.00;0.00;;;;;;;;;;5047552;28;20053;-73
2022/03/22 10:32:53;;;;;;;0.00;0.00;;;;;;;;;;5047646;28;20037;-73
2022/03/22 10:35:35;;;;;;;0.00;0.00;;;;;;;;;;5047916;28;20040;-73
2022/03/22 10:38:09;;;;;;;0.00;0.00;;;;;;;;;;5047156;28;20044;-73
2022/03/22 10:40:47;;;;;;;0.00;0.00;;;;;;;;;;5047920;28;20385;-75
2022/03/22 10:43:23;;;;;;;0.00;0.00;;;;;;;;;;5047584;28;20041;-73
2022/03/22 10:46:04;;;;;;;0.00;0.00;;;;;;;;;;5047403;28;20044;-73
2022/03/22 10:48:40;;;;;;;0.00;0.00;;;;;;;;;;5047822;28;20049;-73
2022/03/22 10:51:15;;;;;;;0.00;0.00;;;;;;;;;;5046562;28;20512;-74
2022/03/22 10:53:46;;;;;;;0.00;0.00;;;;;;;;;;5046679;28;20045;-75
2022/03/22 10:56:17;;;;;;;0.00;0.00;;;;;;;;;;5047549;28;20049;-74
2022/03/22 10:58:48;;;;;;;0.00;0.00;;;;;;;;;;5047027;28;20033;-75
2022/03/22 11:01:20;;;;;;;0.00;0.00;;;;;;;;;;5047939;28;20041;-72
2022/03/22 11:03:56;;;;;;;0.00;0.00;;;;;;;;;;5047272;28;20053;-75
2022/03/22 11:06:30;;;;;;;0.00;0.00;;;;;;;;;;5047343;28;20053;-74
2022/03/22 11:09:01;;;;;;;0.00;0.00;;;;;;;;;;5047642;28;20052;-73
2022/03/22 11:11:32;;;;;;;0.00;0.00;;;;;;;;;;5047144;28;20052;-74
2022/03/22 11:14:03;;;;;;;;;;;;;;;;;;5047354;28;20299;-74
2022/03/22 11:16:34;;;;;;;0.00;0.00;;;;;;;;;;5045829;28;20295;-72
2022/03/22 11:19:05;;;;;;;0.00;0.00;;;;;;;;;;5046924;28;20041;-74
2022/03/22 11:21:38;;;;;;;0.00;0.00;;;;;;;;;;5046284;28;20048;-74
2022/03/22 11:24:10;;;;;;;0.00;0.00;;;;;;;;;;5045826;28;20435;-76
2022/03/22 11:26:42;;;;;;;0.00;0.00;;;;;;;;;;5046541;28;20041;-75
2022/03/22 11:29:15;;;;;;;0.00;0.00;;;;;;;;;;5045800;28;20428;-76
2022/03/22 11:34:09;;;;;;;0.00;0.00;;;;;;;;;;5044724;28;20053;-74
2022/03/22 11:34:41;;;;;;;0.00;0.00;;;;;;;;;;5046580;28;20045;-74
2022/03/22 11:37:11;;;;;;;0.10;0.10;;;;;;;;;;5046691;28;20564;-74
2022/03/22 11:42:56;;;;;;;0.00;0.00;;;;;;;;;;5046228;28;20044;-74
2022/03/22 11:45:27;;;;;;;0.00;0.00;;;;;;;;;;5046154;28;20550;-74
2022/03/22 11:48:07;;;;;;;0.00;0.00;;;;;;;;;;5046220;28;20424;-75
2022/03/22 11:50:46;;;;;;;0.00;0.00;;;;;;;;;;5046052;28;20063;-72
2022/03/22 11:53:21;;;;;;;;;;;;;;;;;;5046587;28;20049;-72
2022/03/22 11:55:57;;;;;;;0.00;0.00;;;;;;;;;;5046957;28;19928;-73
2022/03/22 11:58:28;;;;;;;0.00;0.00;;;;;;;;;;5046833;28;20041;-74
2022/03/22 12:01:17;;;;;;;0.00;0.00;;;;;;;;;;5045631;28;20053;-74
2022/03/22 12:03:51;;;;;;;0.00;0.00;;;;;;;;;;5046573;28;20044;-73
2022/03/22 12:06:22;;;;;;;0.00;0.00;;;;;;;;;;5044711;28;20527;-75
2022/03/22 12:08:52;;;;;;;;;;;;;;;;;;5046370;28;20496;-73
2022/03/22 12:11:22;;;;;;;0.00;0.00;;;;;;;;;;5046205;28;19924;-75
2022/03/22 12:13:52;;;;;;;0.00;0.00;;;;;;;;;;5046140;28;20053;-75
2022/03/22 12:16:27;;;;;;;0.10;0.00;;;;;;;;;;5045949;28;20049;-75
2022/03/22 12:19:00;;;;;;;0.00;0.00;;;;;;;;;;5046142;28;20444;-75
2022/03/22 12:21:31;;;;;;;0.00;0.00;;;;;;;;;;5046393;28;20496;-74
2022/03/22 12:24:04;;;;;;;0.00;0.00;;;;;;;;;;5046345;28;20045;-74
2022/03/22 12:26:36;;;;;;;0.00;0.00;;;;;;;;;;5045815;28;20060;-75
2022/03/22 12:29:06;;;;;;;0.15;0.15;;;;;;;;;;5049407;28;20496;-74
2022/03/22 12:31:36;;;;;;;0.00;0.00;;;;;;;;;;5048975;28;20045;-74
2022/03/22 12:34:06;;;;;;;0.00;0.00;;;;;;;;;;5050003;28;20045;-73
2022/03/22 12:36:36;;;;;;;0.00;0.00;;;;;;;;;;5050035;28;20294;-74
2022/03/22 12:39:06;;;;;;;0.00;0.00;;;;;;;;;;5049789;28;20411;-73
2022/03/22 12:41:39;;;;;;;0.00;0.00;;;;;;;;;;5049693;28;20055;-74
2022/03/22 12:44:09;;;;;;;0.00;0.00;;;;;;;;;;5049172;28;20068;-74
2022/03/22 12:46:40;;;;;;;0.00;0.00;;;;;;;;;;5050142;28;20072;-74
2022/03/22 12:49:10;;;;;;;0.00;0.00;;;;;;;;;;5050092;28;20045;-74
2022/03/22 12:51:41;;;;;;;0.38;0.38;;;;;;;;;;5049235;28;20052;-74
2022/03/22 12:54:16;;;;;;;0.00;0.00;;;;;;;;;;5050422;28;20045;-74
2022/03/22 12:56:49;;;;;;;0.00;0.00;;;;;;;;;;5048632;28;20479;-74
2022/03/22 12:59:26;;;;;;;0.10;0.00;;;;;;;;;;5049790;28;20044;-75
2022/03/22 13:01:59;;;;;;;0.00;0.00;;;;;;;;;;5050015;28;20052;-74
2022/03/22 13:04:30;;;;;;;0.00;0.00;;;;;;;;;;5047927;28;20056;-75
2022/03/22 13:07:07;;;;;;;0.00;0.00;;;;;;;;;;5047070;28;20061;-75
2022/03/22 13:12:26;;;;;;;0.00;0.00;;;;;;;;;;5049580;28;20037;-73
2022/03/22 13:15:05;;;;;;;0.00;0.00;;;;;;;;;;5049395;28;20416;-74
2022/03/22 13:17:45;;;;;;;0.00;0.00;;;;;;;;;;5049415;28;20499;-73
2022/03/22 13:20:27;;;;;;;0.00;0.00;;;;;;;;;;5048869;28;20052;-74
2022/03/22 13:23:09;;;;;;;0.47;0.10;;;;;;;;;;5047894;28;20440;-73
2022/03/22 13:25:41;;;;;;;0.00;0.00;;;;;;;;;;5048661;28;20047;-72
2022/03/22 13:28:14;;;;;;;0.00;0.00;;;;;;;;;;5049408;28;20040;-73
2022/03/22 13:30:48;;;;;;;0.00;0.00;;;;;;;;;;5049334;28;20057;-74
2022/03/22 13:33:22;;;;;;;0.00;0.00;;;;;;;;;;5049002;28;20056;-75
2022/03/22 13:36:03;;;;;;;0.00;0.00;;;;;;;;;;5048430;28;20408;-73
2022/03/22 13:38:34;;;;;;;0.00;0.00;;;;;;;;;;5048238;28;20045;-74
2022/03/22 13:41:06;;;;;;;0.00;0.00;;;;;;;;;;5048370;28;20053;-75
2022/03/22 13:43:45;;;;;;;0.00;0.00;;;;;;;;;;5048969;28;20052;-75
2022/03/22 13:46:15;;;;;;;0.10;0.10;;;;;;;;;;5047890;28;20048;-74
2022/03/22 13:48:51;;;;;;;0.10;0.00;;;;;;;;;;5046371;28;20053;-75
2022/03/22 13:51:24;;;;;;;0.00;0.00;;;;;;;;;;5046252;28;20048;-74
2022/03/22 13:53:55;;;;;;;0.00;0.00;;;;;;;;;;5046303;28;20053;-74
2022/03/22 13:56:26;;;;;;;0.00;0.00;;;;;;;;;;5044651;28;20618;-75
2022/03/22 13:58:55;;;;;;;0.15;0.15;;;;;;;;;;5046233;28;20045;-75
2022/03/22 14:01:27;;;;;;;0.00;0.00;;;;;;;;;;5045570;28;20049;-74
2022/03/22 14:03:57;;;;;;;0.00;0.00;;;;;;;;;;5046455;28;20049;-75
2022/03/22 14:06:28;;;;;;;0.03;0.03;;;;;;;;;;5046377;28;20053;-75
2022/03/22 14:08:58;;;;;;;0.00;0.00;;;;;;;;;;5047929;28;20057;-74
2022/03/22 14:11:28;;;;;;;0.00;0.00;;;;;;;;;;5048276;28;20141;-77
2022/03/22 14:13:58;;;;;;;0.00;0.00;;;;;;;;;;5046561;28;20932;-74
2022/03/22 14:16:28;;;;;;;0.00;0.00;;;;;;;;;;5046342;28;20057;-73
2022/03/22 14:18:58;;;;;;;0.00;0.00;;;;;;;;;;5046837;28;20059;-74
2022/03/22 14:21:49;;;;;;;0.00;0.00;;;;;;;;;;5045865;28;20056;-75
2022/03/22 14:24:19;;;;;;;0.00;0.00;;;;;;;;;;5047147;28;20048;-74
2022/03/22 14:26:51;;;;;;;0.00;0.00;;;;;;;;;;5046954;28;20051;-74
2022/03/22 14:29:22;;;;;;;0.00;0.00;;;;;;;;;;5047571;28;20055;-77
2022/03/22 14:31:52;;;;;;;0.00;0.00;;;;;;;;;;5046673;28;20041;-75
2022/03/22 14:37:11;;;;;;;0.00;0.00;;;;;;;;;;5046473;28;20068;-74
2022/03/22 14:39:41;;;;;;;0.00;0.00;;;;;;;;;;5046669;28;20074;-76
2022/03/22 14:42:13;;;;;;;;;;;;;;;;;;5047880;28;20053;-74
2022/03/22 14:44:43;;;;;;;0.00;0.00;;;;;;;;;;5047600;28;19932;-74
2022/03/22 14:47:15;;;;;;;0.00;0.00;;;;;;;;;;5047851;28;20636;-75
2022/03/22 14:49:46;;;;;;;0.00;0.00;;;;;;;;;;5047766;28;20060;-75
2022/03/22 14:55:04;;;;;;;0.00;0.00;;;;;;;;;;5046716;28;20500;-74
2022/03/22 15:00:23;;;;;;;0.00;0.00;;;;;;;;;;5047135;28;20048;-73
2022/03/22 15:02:53;;;;;;;0.00;0.00;;;;;;;;;;5047209;28;20060;-73
2022/03/22 15:05:38;;;;;;;0.00;0.00;;;;;;;;;;5047125;28;20048;-74
2022/03/22 15:08:11;;;;;;;0.00;0.00;;;;;;;;;;5047766;28;20061;-75
2022/03/22 15:10:43;;;;;;;0.00;0.00;;;;;;;;;;5047068;28;20044;-75
2022/03/22 15:13:14;;;;;;;0.00;0.00;;;;;;;;;;5047862;28;20050;-74
2022/03/22 15:15:44;;;;;;;0.00;0.00;;;;;;;;;;5046756;28;20412;-74
2022/03/22 15:18:17;;;;;;;0.00;0.00;;;;;;;;;;5044842;28;20064;-75
2022/03/22 15:20:49;;;;;;;0.00;0.00;;;;;;;;;;5047394;28;20068;-75
2022/03/22 15:23:19;;;;;;;0.00;0.00;;;;;;;;;;5046955;28;20067;-74
2022/03/22 15:25:51;;;;;;;0.00;0.00;;;;;;;;;;5047248;28;20047;-75
2022/03/22 15:28:22;;;;;;;0.00;0.00;;;;;;;;;;5046722;28;20527;-75
2022/03/22 15:30:53;;;;;;;0.00;0.00;;;;;;;;;;5046852;28;20056;-75
2022/03/22 15:33:24;;;;;;;0.00;0.00;;;;;;;;;;5046733;28;20044;-74
2022/03/22 15:35:54;;;;;;;0.00;0.00;;;;;;;;;;5046965;28;20053;-73
2022/03/22 15:38:24;;;;;;;0.00;0.00;;;;;;;;;;5047058;28;20045;-75
2022/03/22 15:40:56;;;;;;;0.00;0.00;;;;;;;;;;5046497;28;20622;-75
2022/03/22 15:43:26;;;;;;;0.00;0.00;;;;;;;;;;5046076;28;20045;-76
2022/03/22 15:45:57;;;;;;;0.10;0.10;;;;;;;;;;5046592;28;20496;-75